Iowa City, IA

6:47 PM CST on February 24, 2017 (GMT -0600)
Iowa City Municipal | | Change Station

Elev 666 ft 41.64 °N, 91.55 °W | Updated 7 minutes ago

Light Snow
Light Snow Mist
33 °F
Feels Like 25 °F
N
10
Wind Variable Wind from NW

Today
High -- | Low -- °F
--% Chance of Precip.
Yesterday
High -- | Low -- °F
Precip. -- in
Pressure 29.69 in
Visibility 2.0 miles
Clouds Mostly Cloudy 900 ft
Mostly Cloudy 1500 ft
Overcast 2000 ft
Windchill 25 °F
Dew Point 30 °F
Humidity 89%
Rainfall 0.00 in
Snow Depth Not available.
6:48 AM 5:51 PM
Waning Crescent, 3% visible
SPECI KIOW 250040Z AUTO 32009KT 2SM -SN BR BKN009 BKN015 OVC020 01/M01 A2969 RMK AO2 P0001 T00061011
Pressure 29.69 in
Visibility 2.0 miles
Clouds Mostly Cloudy 900 ft
Mostly Cloudy 1500 ft
Overcast 2000 ft
Windchill 25 °F
Dew Point 30 °F
Humidity 89%
Rainfall 0.00 in
Snow Depth Not available.
6:48 AM 5:51 PM
Waning Crescent, 3% visible
SPECI KIOW 250040Z AUTO 32009KT 2SM -SN BR BKN009 BKN015 OVC020 01/M01 A2969 RMK AO2 P0001 T00061011

Get Your Daily Forecast Email!

Thanks for signing up!

Be on the lookout for a verification email in your inbox.

You'll start receiving the daily forecast at 8 AM.

×

10-Day Weather Forecast

Almanac

Astronomy

Feb. 24, 2017 Rise Set
Actual Time
Civil Twilight
Nautical Twilight
Astronomical Twilight
Moon
Length of Visible Light
Length of Day
Tomorrow will be .
, % of the Moon is Illuminated

Today's Extremes

State Highs State Lows

Community

WunderPhotos

Upload Photos

1,962,540 photos uploaded!

WunderBlog® & News

Nearby

Air Quality

  Air Quality AQ Index Pollutant
Not available.

Snow Depth

Station Depth Elevation

Earthquake Activity

City Distance Mag. Time & Date
Minimum magnitude displayed is 2.5.

Coastal Water Temperatures

Place Temperature

Stations

Nearby Weather Stations

Station Location Temp. Windchill Dew Point Humidity Wind Precip. Elev Updated Type
                   

Watches & Warnings

There are currently no watches in effect.